sensor_id;sensor_type;location;lat;lon;timestamp;pressure;altitude;pressure_sealevel;temperature;humidity
43364;BME280;40636;52.424;-1.948;2023-06-24T00:00:56;100617.16;;;17.19;100.00
43364;BME280;40636;52.424;-1.948;2023-06-24T00:03:22;100623.53;;;17.14;100.00
43364;BME280;40636;52.424;-1.948;2023-06-24T00:05:49;100627.41;;;17.13;100.00
43364;BME280;40636;52.424;-1.948;2023-06-24T00:08:16;100631.84;;;17.19;100.00
43364;BME280;40636;52.424;-1.948;2023-06-24T00:10:52;100632.97;;;17.13;100.00
43364;BME280;40636;52.424;-1.948;2023-06-24T00:13:19;100624.66;;;17.13;100.00
43364;BME280;40636;52.424;-1.948;2023-06-24T00:15:46;100627.97;;;17.10;100.00
43364;BME280;40636;52.424;-1.948;2023-06-24T00:18:27;100628.50;;;17.02;100.00
43364;BME280;40636;52.424;-1.948;2023-06-24T00:20:55;100628.22;;;16.98;100.00
43364;BME280;40636;52.424;-1.948;2023-06-24T00:23:23;100627.38;;;16.93;100.00
43364;BME280;40636;52.424;-1.948;2023-06-24T00:25:54;100626.28;;;16.89;100.00
43364;BME280;40636;52.424;-1.948;2023-06-24T00:28:23;100631.56;;;16.85;100.00
43364;BME280;40636;52.424;-1.948;2023-06-24T00:30:49;100629.63;;;16.86;100.00
43364;BME280;40636;52.424;-1.948;2023-06-24T00:33:18;100629.06;;;16.84;100.00
43364;BME280;40636;52.424;-1.948;2023-06-24T00:35:46;100632.41;;;16.86;100.00
43364;BME280;40636;52.424;-1.948;2023-06-24T00:38:13;100630.72;;;16.85;100.00
43364;BME280;40636;52.424;-1.948;2023-06-24T00:40:40;100622.13;;;16.81;100.00
43364;BME280;40636;52.424;-1.948;2023-06-24T00:43:07;100618.53;;;16.81;100.00
43364;BME280;40636;52.424;-1.948;2023-06-24T00:45:34;100622.38;;;16.74;100.00
43364;BME280;40636;52.424;-1.948;2023-06-24T00:48:01;100632.34;;;16.76;100.00
43364;BME280;40636;52.424;-1.948;2023-06-24T00:50:30;100639.00;;;16.74;100.00
43364;BME280;40636;52.424;-1.948;2023-06-24T00:52:57;100634.88;;;16.77;100.00
43364;BME280;40636;52.424;-1.948;2023-06-24T00:55:24;100630.44;;;16.81;100.00
43364;BME280;40636;52.424;-1.948;2023-06-24T00:57:52;100630.72;;;16.85;100.00
43364;BME280;40636;52.424;-1.948;2023-06-24T01:00:21;100629.63;;;16.91;100.00
43364;BME280;40636;52.424;-1.948;2023-06-24T01:02:50;100634.59;;;16.94;100.00
43364;BME280;40636;52.424;-1.948;2023-06-24T01:05:18;100626.84;;;16.96;100.00
43364;BME280;40636;52.424;-1.948;2023-06-24T01:07:51;100629.06;;;16.94;100.00
43364;BME280;40636;52.424;-1.948;2023-06-24T01:10:23;100616.59;;;16.96;100.00
43364;BME280;40636;52.424;-1.948;2023-06-24T01:12:50;100619.91;;;16.98;100.00
43364;BME280;40636;52.424;-1.948;2023-06-24T01:15:18;100621.03;;;16.97;100.00
43364;BME280;40636;52.424;-1.948;2023-06-24T01:17:58;100622.41;;;16.95;100.00
43364;BME280;40636;52.424;-1.948;2023-06-24T01:20:56;100630.16;;;17.03;100.00
43364;BME280;40636;52.424;-1.948;2023-06-24T01:29:59;100633.25;;;17.22;100.00
43364;BME280;40636;52.424;-1.948;2023-06-24T01:32:22;100628.50;;;17.28;100.00
43364;BME280;40636;52.424;-1.948;2023-06-24T01:35:01;100627.97;;;17.31;100.00
43364;BME280;40636;52.424;-1.948;2023-06-24T01:37:44;100631.81;;;17.35;100.00
43364;BME280;40636;52.424;-1.948;2023-06-24T01:40:33;100631.84;;;17.40;100.00
43364;BME280;40636;52.424;-1.948;2023-06-24T01:43:04;100624.06;;;17.42;100.00
43364;BME280;40636;52.424;-1.948;2023-06-24T01:45:42;100618.78;;;17.40;100.00
43364;BME280;40636;52.424;-1.948;2023-06-24T01:48:18;100622.41;;;17.41;100.00
43364;BME280;40636;52.424;-1.948;2023-06-24T01:50:55;100619.63;;;17.36;100.00
43364;BME280;40636;52.424;-1.948;2023-06-24T01:53:24;100617.13;;;17.29;100.00
43364;BME280;40636;52.424;-1.948;2023-06-24T01:55:54;100615.75;;;17.27;100.00
43364;BME280;40636;52.424;-1.948;2023-06-24T01:58:22;100617.69;;;17.21;100.00
43364;BME280;40636;52.424;-1.948;2023-06-24T02:00:50;100617.44;;;17.17;100.00
43364;BME280;40636;52.424;-1.948;2023-06-24T02:03:19;100619.09;;;17.08;100.00
43364;BME280;40636;52.424;-1.948;2023-06-24T02:05:47;100621.59;;;17.05;100.00
43364;BME280;40636;52.424;-1.948;2023-06-24T02:08:16;100615.75;;;17.06;100.00
43364;BME280;40636;52.424;-1.948;2023-06-24T02:10:45;100622.41;;;17.05;100.00
43364;BME280;40636;52.424;-1.948;2023-06-24T02:13:13;100621.84;;;17.03;100.00
43364;BME280;40636;52.424;-1.948;2023-06-24T02:15:40;100627.41;;;17.08;100.00
43364;BME280;40636;52.424;-1.948;2023-06-24T02:18:08;100629.63;;;17.11;100.00
43364;BME280;40636;52.424;-1.948;2023-06-24T02:20:37;100630.72;;;17.10;100.00
43364;BME280;40636;52.424;-1.948;2023-06-24T02:23:07;100627.41;;;17.13;100.00
43364;BME280;40636;52.424;-1.948;2023-06-24T02:25:35;100623.22;;;17.16;100.00
43364;BME280;40636;52.424;-1.948;2023-06-24T02:28:08;100626.28;;;17.19;100.00
43364;BME280;40636;52.424;-1.948;2023-06-24T02:30:37;100621.31;;;17.27;100.00
43364;BME280;40636;52.424;-1.948;2023-06-24T02:33:05;100619.09;;;17.23;100.00
43364;BME280;40636;52.424;-1.948;2023-06-24T02:35:35;100620.72;;;17.30;100.00
43364;BME280;40636;52.424;-1.948;2023-06-24T02:38:02;100619.34;;;17.32;100.00
43364;BME280;40636;52.424;-1.948;2023-06-24T02:40:30;100618.22;;;17.38;100.00
43364;BME280;40636;52.424;-1.948;2023-06-24T02:42:57;100610.19;;;17.42;100.00
43364;BME280;40636;52.424;-1.948;2023-06-24T02:45:25;100614.63;;;17.43;100.00
43364;BME280;40636;52.424;-1.948;2023-06-24T02:47:52;100610.72;;;17.44;100.00
43364;BME280;40636;52.424;-1.948;2023-06-24T02:50:21;100603.78;;;17.46;100.00
43364;BME280;40636;52.424;-1.948;2023-06-24T02:52:48;100598.25;;;17.46;100.00
43364;BME280;40636;52.424;-1.948;2023-06-24T02:55:16;100605.75;;;17.46;100.00
43364;BME280;40636;52.424;-1.948;2023-06-24T02:57:43;100602.97;;;17.46;100.00
43364;BME280;40636;52.424;-1.948;2023-06-24T03:00:11;100602.41;;;17.44;100.00
43364;BME280;40636;52.424;-1.948;2023-06-24T03:02:41;100603.78;;;17.46;100.00
43364;BME280;40636;52.424;-1.948;2023-06-24T03:05:10;100609.03;;;17.48;100.00
43364;BME280;40636;52.424;-1.948;2023-06-24T03:07:37;100611.81;;;17.48;100.00
43364;BME280;40636;52.424;-1.948;2023-06-24T03:10:05;100603.78;;;17.46;100.00
43364;BME280;40636;52.424;-1.948;2023-06-24T03:12:32;100601.00;;;17.46;100.00
43364;BME280;40636;52.424;-1.948;2023-06-24T03:14:59;100593.81;;;17.45;100.00
43364;BME280;40636;52.424;-1.948;2023-06-24T03:17:27;100595.19;;;17.48;100.00
43364;BME280;40636;52.424;-1.948;2023-06-24T03:19:54;100601.84;;;17.47;100.00
43364;BME280;40636;52.424;-1.948;2023-06-24T03:22:22;100596.88;;;17.49;100.00
43364;BME280;40636;52.424;-1.948;2023-06-24T03:24:48;100611.81;;;17.48;100.00
43364;BME280;40636;52.424;-1.948;2023-06-24T03:27:15;100601.31;;;17.45;100.00
43364;BME280;40636;52.424;-1.948;2023-06-24T03:29:42;100597.41;;;17.46;100.00
43364;BME280;40636;52.424;-1.948;2023-06-24T03:32:09;100602.13;;;17.45;100.00
43364;BME280;40636;52.424;-1.948;2023-06-24T03:34:36;100601.84;;;17.47;100.00
43364;BME280;40636;52.424;-1.948;2023-06-24T03:37:03;100595.19;;;17.48;100.00
43364;BME280;40636;52.424;-1.948;2023-06-24T03:39:31;100601.56;;;17.48;100.00
43364;BME280;40636;52.424;-1.948;2023-06-24T03:41:57;100592.69;;;17.52;100.00
43364;BME280;40636;52.424;-1.948;2023-06-24T03:44:24;100587.41;;;17.50;100.00
43364;BME280;40636;52.424;-1.948;2023-06-24T03:46:51;100589.06;;;17.51;100.00
43364;BME280;40636;52.424;-1.948;2023-06-24T03:49:18;100589.06;;;17.51;100.00
43364;BME280;40636;52.424;-1.948;2023-06-24T03:51:45;100601.00;;;17.52;100.00
43364;BME280;40636;52.424;-1.948;2023-06-24T03:54:12;100597.41;;;17.51;100.00
43364;BME280;40636;52.424;-1.948;2023-06-24T03:56:38;100596.28;;;17.47;100.00
43364;BME280;40636;52.424;-1.948;2023-06-24T03:59:05;100593.78;;;17.50;100.00
43364;BME280;40636;52.424;-1.948;2023-06-24T04:01:32;100602.94;;;17.51;100.00
43364;BME280;40636;52.424;-1.948;2023-06-24T04:03:59;100596.88;;;17.49;100.00
43364;BME280;40636;52.424;-1.948;2023-06-24T04:06:26;100605.72;;;17.51;100.00
43364;BME280;40636;52.424;-1.948;2023-06-24T04:08:53;100611.81;;;17.53;100.00
43364;BME280;40636;52.424;-1.948;2023-06-24T04:11:20;100608.22;;;17.53;100.00
43364;BME280;40636;52.424;-1.948;2023-06-24T04:13:46;100610.16;;;17.52;100.00
43364;BME280;40636;52.424;-1.948;2023-06-24T04:16:15;100616.81;;;17.51;100.00
43364;BME280;40636;52.424;-1.948;2023-06-24T04:18:41;100601.31;;;17.45;100.00
43364;BME280;40636;52.424;-1.948;2023-06-24T04:21:08;100602.13;;;17.45;100.00
43364;BME280;40636;52.424;-1.948;2023-06-24T04:23:35;100612.41;;;17.45;100.00
43364;BME280;40636;52.424;-1.948;2023-06-24T04:26:02;100605.16;;;17.44;100.00
43364;BME280;40636;52.424;-1.948;2023-06-24T04:28:29;100599.63;;;17.44;100.00
43364;BME280;40636;52.424;-1.948;2023-06-24T04:30:57;100595.75;;;17.45;100.00
43364;BME280;40636;52.424;-1.948;2023-06-24T04:33:24;100608.50;;;17.46;100.00
43364;BME280;40636;52.424;-1.948;2023-06-24T04:35:51;100588.25;;;17.50;100.00
43364;BME280;40636;52.424;-1.948;2023-06-24T04:38:18;100585.16;;;17.57;100.00
43364;BME280;40636;52.424;-1.948;2023-06-24T04:40:45;100583.50;;;17.61;100.00
43364;BME280;40636;52.424;-1.948;2023-06-24T04:43:12;100594.84;;;17.70;100.00
43364;BME280;40636;52.424;-1.948;2023-06-24T04:45:38;100600.69;;;17.79;100.00
43364;BME280;40636;52.424;-1.948;2023-06-24T04:48:05;100595.13;;;17.84;100.00
43364;BME280;40636;52.424;-1.948;2023-06-24T04:50:32;100598.72;;;17.84;100.00
43364;BME280;40636;52.424;-1.948;2023-06-24T04:53:00;100600.41;;;17.85;100.00
43364;BME280;40636;52.424;-1.948;2023-06-24T04:55:28;100589.00;;;17.87;100.00
43364;BME280;40636;52.424;-1.948;2023-06-24T04:57:58;100587.91;;;17.83;100.00
43364;BME280;40636;52.424;-1.948;2023-06-24T05:00:25;100591.00;;;17.76;100.00
43364;BME280;40636;52.424;-1.948;2023-06-24T05:02:52;100580.72;;;17.77;100.00
43364;BME280;40636;52.424;-1.948;2023-06-24T05:05:19;100583.47;;;17.82;100.00
43364;BME280;40636;52.424;-1.948;2023-06-24T05:07:47;100579.88;;;17.76;100.00
43364;BME280;40636;52.424;-1.948;2023-06-24T05:10:14;100578.75;;;17.82;100.00
43364;BME280;40636;52.424;-1.948;2023-06-24T05:12:41;100594.03;;;17.74;100.00
43364;BME280;40636;52.424;-1.948;2023-06-24T05:15:08;100590.41;;;17.69;100.00
43364;BME280;40636;52.424;-1.948;2023-06-24T05:17:36;100592.09;;;17.60;100.00
43364;BME280;40636;52.424;-1.948;2023-06-24T05:20:03;100590.41;;;17.69;100.00
43364;BME280;40636;52.424;-1.948;2023-06-24T05:22:31;100589.03;;;17.77;100.00
43364;BME280;40636;52.424;-1.948;2023-06-24T05:24:57;100591.22;;;17.80;100.00
43364;BME280;40636;52.424;-1.948;2023-06-24T05:27:24;100598.16;;;17.87;100.00
43364;BME280;40636;52.424;-1.948;2023-06-24T05:29:51;100605.63;;;17.97;100.00
43364;BME280;40636;52.424;-1.948;2023-06-24T05:32:18;100616.16;;;18.00;100.00
43364;BME280;40636;52.424;-1.948;2023-06-24T05:34:46;100608.59;;;18.16;100.00
43364;BME280;40636;52.424;-1.948;2023-06-24T05:37:13;100607.41;;;18.32;100.00
43364;BME280;40636;52.424;-1.948;2023-06-24T05:39:41;100609.03;;;18.38;100.00
43364;BME280;40636;52.424;-1.948;2023-06-24T05:42:08;100600.94;;;18.42;100.00
43364;BME280;40636;52.424;-1.948;2023-06-24T05:44:35;100600.69;;;18.38;100.00
43364;BME280;40636;52.424;-1.948;2023-06-24T05:47:02;100608.19;;;18.38;100.00
43364;BME280;40636;52.424;-1.948;2023-06-24T05:49:29;100607.38;;;18.37;100.00
43364;BME280;40636;52.424;-1.948;2023-06-24T05:51:56;100604.88;;;18.36;100.00
43364;BME280;40636;52.424;-1.948;2023-06-24T05:54:23;100608.19;;;18.38;100.00
43364;BME280;40636;52.424;-1.948;2023-06-24T05:56:50;100610.94;;;18.43;100.00
43364;BME280;40636;52.424;-1.948;2023-06-24T05:59:17;100615.66;;;18.47;100.00
43364;BME280;40636;52.424;-1.948;2023-06-24T06:01:43;100614.78;;;18.52;100.00
43364;BME280;40636;52.424;-1.948;2023-06-24T06:04:10;100610.34;;;18.51;100.00
43364;BME280;40636;52.424;-1.948;2023-06-24T06:06:37;100617.03;;;18.50;100.00
43364;BME280;40636;52.424;-1.948;2023-06-24T06:09:05;100610.03;;;18.58;100.00
43364;BME280;40636;52.424;-1.948;2023-06-24T06:11:34;100612.44;;;18.74;100.00
43364;BME280;40636;52.424;-1.948;2023-06-24T06:14:01;100610.06;;;18.97;100.00
43364;BME280;40636;52.424;-1.948;2023-06-24T06:16:28;100619.69;;;19.10;100.00
43364;BME280;40636;52.424;-1.948;2023-06-24T06:18:55;100623.41;;;19.29;100.00
43364;BME280;40636;52.424;-1.948;2023-06-24T06:21:21;100617.75;;;19.39;100.00
43364;BME280;40636;52.424;-1.948;2023-06-24T06:23:48;100623.88;;;19.41;100.00
43364;BME280;40636;52.424;-1.948;2023-06-24T06:26:15;100619.69;;;19.39;100.00
43364;BME280;40636;52.424;-1.948;2023-06-24T06:28:42;100633.19;;;19.26;100.00
43364;BME280;40636;52.424;-1.948;2023-06-24T06:31:09;100638.19;;;19.24;100.00
43364;BME280;40636;52.424;-1.948;2023-06-24T06:33:36;100637.72;;;19.17;100.00
43364;BME280;40636;52.424;-1.948;2023-06-24T06:36:03;100628.28;;;19.13;100.00
43364;BME280;40636;52.424;-1.948;2023-06-24T06:38:29;100639.69;;;19.12;100.00
43364;BME280;40636;52.424;-1.948;2023-06-24T06:40:56;100642.25;;;19.08;100.00
43364;BME280;40636;52.424;-1.948;2023-06-24T06:43:23;100649.47;;;19.09;100.00
43364;BME280;40636;52.424;-1.948;2023-06-24T06:45:50;100645.50;;;19.15;100.00
43364;BME280;40636;52.424;-1.948;2023-06-24T06:48:21;100657.19;;;19.17;100.00
43364;BME280;40636;52.424;-1.948;2023-06-24T06:50:48;100646.03;;;19.22;100.00
43364;BME280;40636;52.424;-1.948;2023-06-24T06:53:15;100656.56;;;19.25;100.00
43364;BME280;40636;52.424;-1.948;2023-06-24T06:55:41;100652.69;;;19.26;100.00
43364;BME280;40636;52.424;-1.948;2023-06-24T06:58:09;100655.19;;;19.23;100.00
43364;BME280;40636;52.424;-1.948;2023-06-24T07:00:36;100656.84;;;19.24;100.00
43364;BME280;40636;52.424;-1.948;2023-06-24T07:03:03;100652.69;;;19.26;100.00
43364;BME280;40636;52.424;-1.948;2023-06-24T07:05:33;100647.53;;;19.39;100.00
43364;BME280;40636;52.424;-1.948;2023-06-24T07:08:05;100650.72;;;19.56;100.00
43364;BME280;40636;52.424;-1.948;2023-06-24T07:10:32;100642.84;;;19.68;100.00
43364;BME280;40636;52.424;-1.948;2023-06-24T07:12:58;100644.94;;;19.82;100.00
43364;BME280;40636;52.424;-1.948;2023-06-24T07:15:25;100646.47;;;19.93;100.00
43364;BME280;40636;52.424;-1.948;2023-06-24T07:17:53;100652.91;;;19.88;100.00
43364;BME280;40636;52.424;-1.948;2023-06-24T07:20:22;100654.75;;;19.74;100.00
43364;BME280;40636;52.424;-1.948;2023-06-24T07:22:48;100655.06;;;19.72;100.00
43364;BME280;40636;52.424;-1.948;2023-06-24T07:25:15;100666.72;;;19.74;100.00
43364;BME280;40636;52.424;-1.948;2023-06-24T07:27:43;100662.78;;;19.81;100.00
43364;BME280;40636;52.424;-1.948;2023-06-24T07:30:10;100676.53;;;19.96;100.00
43364;BME280;40636;52.424;-1.948;2023-06-24T07:32:37;100670.88;;;20.01;100.00
43364;BME280;40636;52.424;-1.948;2023-06-24T07:35:05;100668.88;;;20.07;100.00
43364;BME280;40636;52.424;-1.948;2023-06-24T07:37:34;100665.81;;;20.08;100.00
43364;BME280;40636;52.424;-1.948;2023-06-24T07:40:01;100664.78;;;19.99;100.00
43364;BME280;40636;52.424;-1.948;2023-06-24T07:42:30;100667.22;;;20.06;100.00
43364;BME280;40636;52.424;-1.948;2023-06-24T07:44:57;100671.78;;;20.20;100.00
43364;BME280;40636;52.424;-1.948;2023-06-24T07:47:24;100675.22;;;20.36;100.00
43364;BME280;40636;52.424;-1.948;2023-06-24T07:49:52;100661.72;;;20.48;100.00
43364;BME280;40636;52.424;-1.948;2023-06-24T07:52:39;100666.72;;;20.46;100.00
43364;BME280;40636;52.424;-1.948;2023-06-24T07:55:29;100663.59;;;20.53;100.00
43364;BME280;40636;52.424;-1.948;2023-06-24T07:57:56;100661.44;;;20.45;100.00
43364;BME280;40636;52.424;-1.948;2023-06-24T08:00:25;100667.28;;;20.48;100.00
43364;BME280;40636;52.424;-1.948;2023-06-24T08:02:52;100681.84;;;20.64;100.00
43364;BME280;40636;52.424;-1.948;2023-06-24T08:05:23;100677.09;;;20.84;100.00
43364;BME280;40636;52.424;-1.948;2023-06-24T08:07:53;100682.00;;;20.92;100.00
43364;BME280;40636;52.424;-1.948;2023-06-24T08:10:21;100681.41;;;20.95;100.00
43364;BME280;40636;52.424;-1.948;2023-06-24T08:12:48;100682.97;;;21.01;100.00
43364;BME280;40636;52.424;-1.948;2023-06-24T08:15:15;100686.22;;;21.08;100.00
43364;BME280;40636;52.424;-1.948;2023-06-24T08:17:41;100683.28;;;21.18;100.00
43364;BME280;40636;52.424;-1.948;2023-06-24T08:20:09;100683.44;;;21.08;100.00
43364;BME280;40636;52.424;-1.948;2023-06-24T08:22:36;100688.09;;;21.13;100.00
43364;BME280;40636;52.424;-1.948;2023-06-24T08:25:03;100684.53;;;21.45;100.00
43364;BME280;40636;52.424;-1.948;2023-06-24T08:27:29;100676.34;;;21.67;100.00
43364;BME280;40636;52.424;-1.948;2023-06-24T08:29:56;100677.94;;;21.55;100.00
43364;BME280;40636;52.424;-1.948;2023-06-24T08:32:23;100660.75;;;21.28;100.00
43364;BME280;40636;52.424;-1.948;2023-06-24T08:34:50;100675.72;;;21.19;100.00
43364;BME280;40636;52.424;-1.948;2023-06-24T08:37:17;100679.34;;;21.00;100.00
43364;BME280;40636;52.424;-1.948;2023-06-24T08:39:43;100676.41;;;20.92;100.00
43364;BME280;40636;52.424;-1.948;2023-06-24T08:42:10;100685.94;;;20.91;100.00
43364;BME280;40636;52.424;-1.948;2023-06-24T08:44:37;100674.63;;;20.82;100.00
43364;BME280;40636;52.424;-1.948;2023-06-24T08:47:04;100680.13;;;20.87;100.00
43364;BME280;40636;52.424;-1.948;2023-06-24T08:49:32;100670.31;;;20.90;100.00
43364;BME280;40636;52.424;-1.948;2023-06-24T08:52:08;100676.56;;;20.82;100.00
43364;BME280;40636;52.424;-1.948;2023-06-24T08:54:38;100672.66;;;20.83;100.00
43364;BME280;40636;52.424;-1.948;2023-06-24T08:57:06;100674.94;;;20.81;100.00
43364;BME280;40636;52.424;-1.948;2023-06-24T08:59:36;100668.81;;;20.78;100.00
43364;BME280;40636;52.424;-1.948;2023-06-24T09:02:03;100678.22;;;20.83;100.00
43364;BME280;40636;52.424;-1.948;2023-06-24T09:04:30;100669.19;;;20.91;100.00
43364;BME280;40636;52.424;-1.948;2023-06-24T09:06:56;100668.44;;;21.04;100.00
43364;BME280;40636;52.424;-1.948;2023-06-24T09:09:24;100659.94;;;21.28;100.00
43364;BME280;40636;52.424;-1.948;2023-06-24T09:12:01;100660.78;;;21.61;100.00
43364;BME280;40636;52.424;-1.948;2023-06-24T09:14:29;100663.09;;;21.87;100.00
43364;BME280;40636;52.424;-1.948;2023-06-24T09:17:01;100658.78;;;22.08;100.00
43364;BME280;40636;52.424;-1.948;2023-06-24T09:19:28;100659.84;;;22.26;100.00
43364;BME280;40636;52.424;-1.948;2023-06-24T09:22:05;100664.19;;;22.32;100.00
43364;BME280;40636;52.424;-1.948;2023-06-24T09:24:36;100660.44;;;22.37;100.00
43364;BME280;40636;52.424;-1.948;2023-06-24T09:27:04;100659.84;;;22.40;100.00
43364;BME280;40636;52.424;-1.948;2023-06-24T09:29:33;100656.22;;;22.39;100.00
43364;BME280;40636;52.424;-1.948;2023-06-24T09:32:00;100659.31;;;22.38;100.00
43364;BME280;40636;52.424;-1.948;2023-06-24T09:34:31;100662.09;;;22.38;100.00
43364;BME280;40636;52.424;-1.948;2023-06-24T09:36:58;100661.13;;;22.56;100.00
43364;BME280;40636;52.424;-1.948;2023-06-24T09:39:27;100654.00;;;22.50;100.00
43364;BME280;40636;52.424;-1.948;2023-06-24T09:41:58;100651.50;;;22.62;100.00
43364;BME280;40636;52.424;-1.948;2023-06-24T09:44:27;100649.63;;;22.71;100.00
43364;BME280;40636;52.424;-1.948;2023-06-24T09:46:57;100651.66;;;22.79;100.00
43364;BME280;40636;52.424;-1.948;2023-06-24T09:49:24;100654.53;;;22.88;100.00
43364;BME280;40636;52.424;-1.948;2023-06-24T09:51:55;100646.38;;;22.92;100.00
43364;BME280;40636;52.424;-1.948;2023-06-24T09:54:27;100646.66;;;23.04;100.00
43364;BME280;40636;52.424;-1.948;2023-06-24T09:57:02;100640.38;;;23.07;100.00
43364;BME280;40636;52.424;-1.948;2023-06-24T09:59:30;100634.72;;;23.21;100.00
43364;BME280;40636;52.424;-1.948;2023-06-24T10:02:02;100626.38;;;23.29;100.00
43364;BME280;40636;52.424;-1.948;2023-06-24T10:04:31;100627.03;;;23.26;100.00
43364;BME280;40636;52.424;-1.948;2023-06-24T10:06:58;100633.75;;;23.25;100.00
43364;BME280;40636;52.424;-1.948;2023-06-24T10:09:25;100626.72;;;23.28;100.00
43364;BME280;40636;52.424;-1.948;2023-06-24T10:11:52;100621.94;;;23.28;100.00
43364;BME280;40636;52.424;-1.948;2023-06-24T10:14:19;100626.38;;;23.29;100.00
43364;BME280;40636;52.424;-1.948;2023-06-24T10:16:46;100630.06;;;23.39;100.00
43364;BME280;40636;52.424;-1.948;2023-06-24T10:19:19;100621.63;;;23.30;100.00
43364;BME280;40636;52.424;-1.948;2023-06-24T10:21:58;100630.06;;;23.39;100.00
43364;BME280;40636;52.424;-1.948;2023-06-24T10:24:31;100629.53;;;23.59;100.00
43364;BME280;40636;52.424;-1.948;2023-06-24T10:27:03;100628.88;;;23.85;100.00
43364;BME280;40636;52.424;-1.948;2023-06-24T10:29:34;100625.78;;;23.95;100.00
43364;BME280;40636;52.424;-1.948;2023-06-24T10:32:10;100621.03;;;24.04;100.00
43364;BME280;40636;52.424;-1.948;2023-06-24T10:39:51;100624.16;;;23.94;100.00
43364;BME280;40636;52.424;-1.948;2023-06-24T10:42:39;100613.22;;;23.92;100.00
43364;BME280;40636;52.424;-1.948;2023-06-24T10:47:56;100610.91;;;23.86;100.00
43364;BME280;40636;52.424;-1.948;2023-06-24T10:50:23;100614.03;;;23.62;100.00
43364;BME280;40636;52.424;-1.948;2023-06-24T10:52:53;100613.97;;;23.67;100.00
43364;BME280;40636;52.424;-1.948;2023-06-24T10:55:24;100607.13;;;23.59;100.00
43364;BME280;40636;52.424;-1.948;2023-06-24T10:57:52;100600.50;;;23.55;100.00
43364;BME280;40636;52.424;-1.948;2023-06-24T11:00:20;100588.94;;;23.79;100.00
43364;BME280;40636;52.424;-1.948;2023-06-24T11:02:48;100591.00;;;24.04;100.00
43364;BME280;40636;52.424;-1.948;2023-06-24T11:05:14;100590.72;;;24.15;100.00
43364;BME280;40636;52.424;-1.948;2023-06-24T11:07:41;100589.84;;;24.05;100.00
43364;BME280;40636;52.424;-1.948;2023-06-24T11:10:12;100590.03;;;24.09;100.00
43364;BME280;40636;52.424;-1.948;2023-06-24T11:12:40;100594.97;;;24.03;100.00
43364;BME280;40636;52.424;-1.948;2023-06-24T11:15:12;100601.09;;;24.14;100.00
43364;BME280;40636;52.424;-1.948;2023-06-24T11:17:40;100597.50;;;24.22;100.00
43364;BME280;40636;52.424;-1.948;2023-06-24T11:20:08;100601.78;;;24.20;100.00
43364;BME280;40636;52.424;-1.948;2023-06-24T11:22:36;100592.88;;;24.26;100.00
43364;BME280;40636;52.424;-1.948;2023-06-24T11:25:03;100603.44;;;24.29;100.00
43364;BME280;40636;52.424;-1.948;2023-06-24T11:27:31;100601.50;;;24.39;100.00
43364;BME280;40636;52.424;-1.948;2023-06-24T11:29:59;100597.41;;;24.45;100.00
43364;BME280;40636;52.424;-1.948;2023-06-24T11:32:35;100607.81;;;24.70;100.00
43364;BME280;40636;52.424;-1.948;2023-06-24T11:35:07;100605.00;;;24.79;100.00
43364;BME280;40636;52.424;-1.948;2023-06-24T11:37:35;100606.00;;;24.83;100.00
43364;BME280;40636;52.424;-1.948;2023-06-24T11:40:06;100596.41;;;24.84;100.00
43364;BME280;40636;52.424;-1.948;2023-06-24T11:42:41;100603.03;;;24.97;100.00
43364;BME280;40636;52.424;-1.948;2023-06-24T11:45:11;100601.84;;;24.98;100.00
43364;BME280;40636;52.424;-1.948;2023-06-24T11:47:41;100602.69;;;25.07;100.00
43364;BME280;40636;52.424;-1.948;2023-06-24T11:50:09;100595.59;;;24.84;100.00
43364;BME280;40636;52.424;-1.948;2023-06-24T11:52:39;100591.81;;;24.71;100.00
43364;BME280;40636;52.424;-1.948;2023-06-24T11:55:20;100592.31;;;24.82;100.00
43364;BME280;40636;52.424;-1.948;2023-06-24T12:00:16;100592.97;;;24.96;100.00
43364;BME280;40636;52.424;-1.948;2023-06-24T12:02:43;100584.38;;;25.10;100.00
43364;BME280;40636;52.424;-1.948;2023-06-24T12:05:10;100579.06;;;25.25;100.00
43364;BME280;40636;52.424;-1.948;2023-06-24T12:07:36;100585.63;;;25.47;100.00
43364;BME280;40636;52.424;-1.948;2023-06-24T12:10:03;100580.78;;;25.56;100.00
43364;BME280;40636;52.424;-1.948;2023-06-24T12:12:31;100581.94;;;25.64;100.00
43364;BME280;40636;52.424;-1.948;2023-06-24T12:14:58;100578.81;;;25.48;100.00
43364;BME280;40636;52.424;-1.948;2023-06-24T12:17:25;100591.22;;;25.55;100.00
43364;BME280;40636;52.424;-1.948;2023-06-24T12:19:52;100575.97;;;25.65;100.00
43364;BME280;40636;52.424;-1.948;2023-06-24T12:22:18;100564.88;;;25.69;100.00
43364;BME280;40636;52.424;-1.948;2023-06-24T12:24:46;100574.47;;;25.76;100.00
43364;BME280;40636;52.424;-1.948;2023-06-24T12:27:13;100569.97;;;25.75;100.00
43364;BME280;40636;52.424;-1.948;2023-06-24T12:29:40;100576.31;;;26.02;100.00
43364;BME280;40636;52.424;-1.948;2023-06-24T12:32:07;100568.22;;;26.00;100.00
43364;BME280;40636;52.424;-1.948;2023-06-24T12:34:34;100573.50;;;26.02;100.00
43364;BME280;40636;52.424;-1.948;2023-06-24T12:37:01;100577.63;;;26.04;100.00
43364;BME280;40636;52.424;-1.948;2023-06-24T12:39:27;100571.44;;;25.90;100.00
43364;BME280;40636;52.424;-1.948;2023-06-24T12:41:54;100574.09;;;25.87;100.00
43364;BME280;40636;52.424;-1.948;2023-06-24T12:44:21;100572.13;;;25.78;100.00
43364;BME280;40636;52.424;-1.948;2023-06-24T12:46:48;100581.19;;;25.84;100.00
43364;BME280;40636;52.424;-1.948;2023-06-24T12:49:14;100572.63;;;25.72;100.00
43364;BME280;40636;52.424;-1.948;2023-06-24T12:51:41;100574.50;;;25.59;100.00
43364;BME280;40636;52.424;-1.948;2023-06-24T12:54:09;100579.16;;;25.55;100.00